createdAt,value
2023-01-13T00:01:26.492Z,96009.97
2023-01-13T00:03:56.604Z,96016.16
2023-01-13T00:06:27.005Z,96012.19
2023-01-13T00:08:56.441Z,96019.81
2023-01-13T00:11:26.631Z,96012.44
2023-01-13T00:13:55.747Z,96016.78
2023-01-13T00:16:33.424Z,96008.63
2023-01-13T00:19:03.867Z,96003.47
2023-01-13T00:21:32.791Z,96001.00
2023-01-13T00:24:01.366Z,95995.66
2023-01-13T00:26:34.008Z,95986.03
2023-01-13T00:29:03.058Z,95984.22
2023-01-13T00:31:31.996Z,95980.53
2023-01-13T00:34:03.339Z,95986.25
2023-01-13T00:36:32.403Z,95976.91
2023-01-13T00:39:01.119Z,95972.03
2023-01-13T00:41:49.919Z,95976.53
2023-01-13T00:44:17.473Z,95976.34
2023-01-13T00:46:48.145Z,95978.81
2023-01-13T00:49:20.311Z,95980.09
2023-01-13T00:51:48.988Z,95979.47
2023-01-13T00:54:17.674Z,95978.09
2023-01-13T00:56:46.371Z,95984.09
2023-01-13T00:59:15.649Z,95987.63
2023-01-13T01:01:44.925Z,95993.13
2023-01-13T01:04:13.713Z,95980.03
2023-01-13T01:06:43.759Z,95976.78
2023-01-13T01:09:15.159Z,95969.31
2023-01-13T01:11:47.194Z,95975.03
2023-01-13T01:14:16.824Z,95965.59
2023-01-13T01:16:45.855Z,95975.78
2023-01-13T01:19:14.768Z,95974.94
2023-01-13T01:21:44.875Z,95980.22
2023-01-13T01:24:13.489Z,95979.69
2023-01-13T01:26:42.226Z,95974.06
2023-01-13T01:29:14.214Z,95976.59
2023-01-13T01:31:47.890Z,95964.97
2023-01-13T01:34:16.787Z,95963.16
2023-01-13T01:36:47.179Z,95966.34
2023-01-13T01:39:16.089Z,95967.28
2023-01-13T01:42:04.983Z,95957.19
2023-01-13T01:45:00.929Z,95965.72
2023-01-13T01:47:30.759Z,95958.81
2023-01-13T01:50:00.719Z,95958.81
2023-01-13T01:52:33.841Z,95946.84
2023-01-13T01:55:06.347Z,95959.53
2023-01-13T01:57:38.800Z,95953.72
2023-01-13T02:00:09.014Z,95955.66
2023-01-13T02:02:38.196Z,95961.34
2023-01-13T02:05:07.865Z,95951.28
2023-01-13T02:07:39.295Z,95956.38
2023-01-13T02:10:11.086Z,95946.94
2023-01-13T02:15:47.504Z,95938.59
2023-01-13T02:18:29.881Z,95940.13
2023-01-13T02:21:10.723Z,95941.75
2023-01-13T02:24:32.966Z,95934.84
2023-01-13T02:27:33.673Z,95935.66
2023-01-13T02:30:36.159Z,95939.75
2023-01-13T02:33:15.723Z,95930.94
2023-01-13T02:35:50.707Z,95927.47
2023-01-13T02:38:22.686Z,95925.56
2023-01-13T02:40:58.911Z,95930.34
2023-01-13T02:43:52.696Z,95919.56
2023-01-13T02:46:28.626Z,95916.84
2023-01-13T02:48:59.400Z,95917.03
2023-01-13T02:51:30.337Z,95917.03
2023-01-13T02:54:02.489Z,95911.03
2023-01-13T02:56:35.219Z,95903.69
2023-01-13T02:59:04.315Z,95905.22
2023-01-13T03:01:34.241Z,95911.22
2023-01-13T03:04:13.048Z,95908.16
2023-01-13T03:06:50.002Z,95917.19
2023-01-13T03:09:21.344Z,95916.41
2023-01-13T03:11:55.663Z,95907.75
2023-01-13T03:14:29.002Z,95893.34
2023-01-13T03:17:12.711Z,95897.59
2023-01-13T03:19:46.480Z,95901.22
2023-01-13T03:22:22.519Z,95896.88
2023-01-13T03:24:54.655Z,95895.06
2023-01-13T03:27:27.768Z,95889.97
2023-01-13T03:29:59.992Z,95885.06
2023-01-13T03:32:33.551Z,95888.97
2023-01-13T03:35:06.221Z,95878.50
2023-01-13T03:37:45.557Z,95870.41
2023-01-13T03:40:20.645Z,95877.72
2023-01-13T03:43:06.298Z,95877.53
2023-01-13T03:45:37.128Z,95859.00
2023-01-13T03:48:11.103Z,95884.91
2023-01-13T03:50:42.981Z,95868.75
2023-01-13T03:53:14.110Z,95873.34
2023-01-13T03:55:47.447Z,95876.69
2023-01-13T03:58:20.109Z,95857.59
2023-01-13T04:00:52.552Z,95859.53
2023-01-13T04:03:27.419Z,95870.72
2023-01-13T04:06:01.233Z,95867.91
2023-01-13T04:08:30.222Z,95858.75
2023-01-13T04:11:07.367Z,95857.63
2023-01-13T04:13:39.035Z,95854.25
2023-01-13T04:16:08.315Z,95853.44
2023-01-13T04:18:39.861Z,95854.38
2023-01-13T04:21:09.500Z,95855.13
2023-01-13T04:23:37.994Z,95847.34
2023-01-13T04:26:06.861Z,95850.75
2023-01-13T04:28:42.205Z,95848.59
2023-01-13T04:32:07.003Z,95851.84
2023-01-13T04:34:36.948Z,95843.41
2023-01-13T04:39:58.659Z,95831.19
2023-01-13T04:42:28.943Z,95829.06
2023-01-13T04:44:57.513Z,95827.25
2023-01-13T04:47:26.468Z,95833.56
2023-01-13T04:49:56.675Z,95826.84
2023-01-13T04:52:25.450Z,95823.13
2023-01-13T04:54:54.184Z,95832.16
2023-01-13T04:57:35.519Z,95815.97
2023-01-13T05:00:04.450Z,95825.91
2023-01-13T05:02:33.265Z,95828.22
2023-01-13T05:05:03.031Z,95818.72
2023-01-13T05:07:31.791Z,95811.84
2023-01-13T05:10:00.940Z,95820.25
2023-01-13T05:12:47.282Z,95821.50
2023-01-13T05:15:34.766Z,95816.28
2023-01-13T05:18:03.837Z,95812.13
2023-01-13T05:20:33.359Z,95815.78
2023-01-13T05:23:19.561Z,95811.75
2023-01-13T05:25:49.184Z,95802.78
2023-01-13T05:28:18.184Z,95809.50
2023-01-13T05:30:49.642Z,95813.09
2023-01-13T05:33:20.531Z,95813.09
2023-01-13T05:35:51.349Z,95816.03
2023-01-13T05:38:20.083Z,95821.13
2023-01-13T05:41:06.205Z,95817.03
2023-01-13T05:43:35.127Z,95820.75
2023-01-13T05:46:05.762Z,95816.25
2023-01-13T05:48:35.855Z,95811.47
2023-01-13T05:51:08.113Z,95821.06
2023-01-13T05:53:36.658Z,95820.84
2023-01-13T05:56:05.918Z,95820.72
2023-01-13T05:58:36.386Z,95827.31
2023-01-13T06:01:07.535Z,95838.75
2023-01-13T06:03:36.647Z,95829.91
2023-01-13T06:06:09.191Z,95825.41
2023-01-13T06:08:39.740Z,95825.41
2023-01-13T06:11:08.952Z,95829.25
2023-01-13T06:13:37.683Z,95823.94
2023-01-13T06:16:06.885Z,95823.75
2023-01-13T06:18:49.271Z,95829.03
2023-01-13T06:21:19.435Z,95831.66
2023-01-13T06:23:48.046Z,95826.56
2023-01-13T06:26:19.293Z,95820.03
2023-01-13T06:28:50.315Z,95832.78
2023-01-13T06:31:19.983Z,95832.47
2023-01-13T06:33:52.706Z,95831.00
2023-01-13T06:36:32.646Z,95832.09
2023-01-13T06:39:22.183Z,95829.53
2023-01-13T06:42:09.869Z,95827.28
2023-01-13T06:44:38.523Z,95812.53
2023-01-13T06:47:08.320Z,95807.97
2023-01-13T06:49:37.310Z,95805.28
2023-01-13T06:52:07.648Z,95820.00
2023-01-13T06:54:36.487Z,95806.28
2023-01-13T06:57:05.654Z,95821.75
2023-01-13T06:59:35.672Z,95813.13
2023-01-13T07:02:05.094Z,95825.50
2023-01-13T07:04:33.906Z,95825.34
2023-01-13T07:07:02.463Z,95824.13
2023-01-13T07:09:32.378Z,95830.56
2023-01-13T07:12:00.826Z,95827.41
2023-01-13T07:14:48.882Z,95828.53
2023-01-13T07:17:25.441Z,95818.13
2023-01-13T07:19:55.029Z,95797.47
2023-01-13T07:22:24.797Z,95811.59
2023-01-13T07:24:55.029Z,95799.88
2023-01-13T07:27:26.531Z,95795.63
2023-01-13T07:29:55.329Z,95795.81
2023-01-13T07:32:24.105Z,95806.53
2023-01-13T07:34:52.645Z,95800.13
2023-01-13T07:37:21.330Z,95810.31
2023-01-13T07:39:50.379Z,95795.75
2023-01-13T07:42:40.650Z,95802.16
2023-01-13T07:45:12.395Z,95804.38
2023-01-13T07:47:41.585Z,95812.19
2023-01-13T07:50:11.186Z,95815.75
2023-01-13T07:52:39.897Z,95806.66
2023-01-13T07:55:09.387Z,95805.97
2023-01-13T07:57:39.431Z,95808.53
2023-01-13T08:00:11.401Z,95814.44
2023-01-13T08:02:41.726Z,95803.91
2023-01-13T08:05:11.692Z,95809.81
2023-01-13T08:07:41.246Z,95809.16
2023-01-13T08:10:11.382Z,95810.91
2023-01-13T08:12:58.828Z,95806.28
2023-01-13T08:15:30.016Z,95809.78
2023-01-13T08:18:01.498Z,95824.78
2023-01-13T08:20:30.065Z,95806.22
2023-01-13T08:22:58.736Z,95801.13
2023-01-13T08:25:27.788Z,95804.50
2023-01-13T08:28:00.363Z,95808.09
2023-01-13T08:30:29.537Z,95810.66
2023-01-13T08:32:58.063Z,95801.19
2023-01-13T08:35:26.994Z,95793.66
2023-01-13T08:37:55.883Z,95788.22
2023-01-13T08:40:49.441Z,95792.06
2023-01-13T08:43:19.422Z,95792.72
2023-01-13T08:45:54.161Z,95795.28
2023-01-13T08:48:23.289Z,95797.28
2023-01-13T08:50:52.202Z,95791.59
2023-01-13T08:53:20.998Z,95801.69
2023-01-13T08:55:49.618Z,95788.34
2023-01-13T08:58:19.574Z,95797.03
2023-01-13T09:00:50.781Z,95801.59
2023-01-13T09:03:19.447Z,95788.13
2023-01-13T09:05:48.259Z,95796.19
2023-01-13T09:08:16.616Z,95779.81
2023-01-13T09:10:45.382Z,95787.38
2023-01-13T09:13:13.847Z,95795.22
2023-01-13T09:15:46.793Z,95792.03
2023-01-13T09:18:15.545Z,95794.56
2023-01-13T09:20:44.791Z,95804.38
2023-01-13T09:23:15.349Z,95810.25
2023-01-13T09:25:44.084Z,95816.00
2023-01-13T09:28:13.036Z,95813.28
2023-01-13T09:30:44.434Z,95810.22
2023-01-13T09:36:27.868Z,95810.88
2023-01-13T09:38:56.596Z,95802.22
2023-01-13T09:41:44.478Z,95801.97
2023-01-13T09:44:18.157Z,95799.19
2023-01-13T09:46:52.727Z,95793.38
2023-01-13T09:49:24.227Z,95803.22
2023-01-13T09:51:56.293Z,95797.63
2023-01-13T09:54:32.502Z,95792.78
2023-01-13T09:57:02.035Z,95775.69
2023-01-13T09:59:36.651Z,95780.81
2023-01-13T10:02:20.147Z,95776.09
2023-01-13T10:05:04.403Z,95761.53
2023-01-13T10:07:35.074Z,95757.09
2023-01-13T10:10:04.690Z,95744.16
2023-01-13T10:12:50.944Z,95748.59
2023-01-13T10:15:27.832Z,95748.78
2023-01-13T10:18:01.376Z,95743.78
2023-01-13T10:20:33.710Z,95738.13
2023-01-13T10:23:09.229Z,95744.91
2023-01-13T10:25:50.966Z,95735.53
2023-01-13T10:28:20.274Z,95737.78
2023-01-13T10:30:49.558Z,95738.75
2023-01-13T10:33:45.026Z,95736.97
2023-01-13T10:36:17.970Z,95735.38
2023-01-13T10:38:48.875Z,95737.41
2023-01-13T10:41:25.741Z,95738.53
2023-01-13T10:44:04.344Z,95733.06
2023-01-13T10:46:55.868Z,95730.88
2023-01-13T10:49:39.083Z,95718.59
2023-01-13T10:52:28.656Z,95715.41
2023-01-13T10:54:57.704Z,95714.19
2023-01-13T10:57:28.779Z,95706.25
2023-01-13T10:59:57.910Z,95704.97
2023-01-13T11:02:30.847Z,95699.69
2023-01-13T11:05:04.715Z,95702.34
2023-01-13T11:07:36.038Z,95702.84
2023-01-13T11:10:12.318Z,95704.63
2023-01-13T11:12:45.444Z,95693.72
2023-01-13T11:15:20.191Z,95703.78
2023-01-13T11:17:52.085Z,95692.81
2023-01-13T11:20:30.051Z,95693.31
2023-01-13T11:23:00.362Z,95702.81
2023-01-13T11:25:34.055Z,95702.84
2023-01-13T11:28:05.802Z,95705.66
2023-01-13T11:30:40.087Z,95708.50
2023-01-13T11:33:37.252Z,95715.66
2023-01-13T11:36:12.891Z,95711.47
2023-01-13T11:38:50.655Z,95713.09
2023-01-13T11:41:26.658Z,95704.72
2023-01-13T11:43:59.373Z,95704.72
2023-01-13T11:46:29.375Z,95693.66
2023-01-13T11:48:58.547Z,95702.41
2023-01-13T11:51:37.074Z,95697.00
2023-01-13T11:54:36.621Z,95709.13
2023-01-13T11:57:25.322Z,95709.47
2023-01-13T12:00:11.103Z,95712.94
2023-01-13T12:02:52.579Z,95691.84
2023-01-13T12:05:25.601Z,95692.53
2023-01-13T12:08:03.674Z,95700.91
2023-01-13T12:10:44.566Z,95698.28
2023-01-13T12:13:25.469Z,95689.06
2023-01-13T12:16:10.672Z,95678.78
2023-01-13T12:19:13.009Z,95692.97
2023-01-13T12:21:54.103Z,95708.91
2023-01-13T12:24:31.262Z,95704.72
2023-01-13T12:27:02.328Z,95726.06
2023-01-13T12:29:32.884Z,95723.78
2023-01-13T12:32:03.565Z,95720.50
2023-01-13T12:34:44.044Z,95745.00
2023-01-13T12:37:18.540Z,95760.69
2023-01-13T12:39:57.085Z,95779.72
2023-01-13T12:42:46.869Z,95782.50
2023-01-13T12:45:27.226Z,95789.31
2023-01-13T12:47:56.568Z,95797.94
2023-01-13T12:50:44.340Z,95806.00
2023-01-13T12:53:36.937Z,95803.47
2023-01-13T12:56:36.329Z,95821.00
2023-01-13T12:59:50.225Z,95817.41
2023-01-13T13:02:28.735Z,95806.94
2023-01-13T13:04:58.698Z,95802.28
2023-01-13T13:07:35.037Z,95794.03
2023-01-13T13:10:07.530Z,95785.56
2023-01-13T13:13:16.418Z,95787.47
2023-01-13T13:15:48.229Z,95781.09
2023-01-13T13:18:28.902Z,95773.56
2023-01-13T13:21:04.573Z,95775.47
2023-01-13T13:23:48.337Z,95766.25
2023-01-13T13:26:42.737Z,95760.91
2023-01-13T13:29:25.967Z,95736.22
2023-01-13T13:32:19.113Z,95752.34
2023-01-13T13:34:51.608Z,95759.50
2023-01-13T13:37:56.840Z,95745.59
2023-01-13T13:40:43.925Z,95743.03
2023-01-13T13:43:32.777Z,95751.28
2023-01-13T13:49:12.452Z,95751.88
2023-01-13T13:51:45.553Z,95743.09
2023-01-13T13:54:17.719Z,95749.66
2023-01-13T13:56:47.470Z,95746.25
2023-01-13T13:59:20.318Z,95750.00
2023-01-13T14:01:53.828Z,95745.94
2023-01-13T14:04:28.615Z,95741.09
2023-01-13T14:07:00.965Z,95740.97
2023-01-13T14:09:30.727Z,95734.13
2023-01-13T14:12:01.726Z,95729.28
2023-01-13T14:14:32.567Z,95746.03
2023-01-13T14:17:02.808Z,95742.91
2023-01-13T14:19:34.432Z,95739.22
2023-01-13T14:22:04.607Z,95737.13
2023-01-13T14:24:34.147Z,95743.63
2023-01-13T14:27:10.721Z,95748.38
2023-01-13T14:29:39.704Z,95742.81
2023-01-13T14:32:10.543Z,95751.69
2023-01-13T14:34:40.078Z,95753.28
2023-01-13T14:37:24.522Z,95760.66
2023-01-13T14:39:53.285Z,95773.56
2023-01-13T14:42:22.999Z,95777.97
2023-01-13T14:45:23.202Z,95809.94
2023-01-13T14:47:54.895Z,95802.63
2023-01-13T14:50:29.858Z,95804.38
2023-01-13T14:53:00.993Z,95815.06
2023-01-13T14:55:30.489Z,95826.69
2023-01-13T14:58:25.268Z,95830.63
2023-01-13T15:01:29.989Z,95828.88
2023-01-13T15:04:32.782Z,95833.75
2023-01-13T15:07:19.175Z,95839.88
2023-01-13T15:09:47.963Z,95825.38
2023-01-13T15:12:22.086Z,95829.34
2023-01-13T15:14:54.805Z,95826.44
2023-01-13T15:17:23.189Z,95830.00
2023-01-13T15:20:16.456Z,95829.34
2023-01-13T15:22:45.218Z,95841.53
2023-01-13T15:25:14.172Z,95826.41
2023-01-13T15:27:43.505Z,95827.59
2023-01-13T15:30:15.961Z,95831.19
2023-01-13T15:32:45.485Z,95835.09
2023-01-13T15:35:15.925Z,95827.56
2023-01-13T15:37:45.160Z,95817.19
2023-01-13T15:40:16.266Z,95816.25
2023-01-13T15:43:02.490Z,95801.41
2023-01-13T15:45:49.265Z,95796.03
2023-01-13T15:48:18.440Z,95783.78
2023-01-13T15:50:48.600Z,95796.91
2023-01-13T15:53:17.856Z,95815.28
2023-01-13T15:55:48.847Z,95804.00
2023-01-13T15:58:28.150Z,95826.00
2023-01-13T16:00:56.912Z,95829.31
2023-01-13T16:03:25.442Z,95818.72
2023-01-13T16:05:55.328Z,95838.75
2023-01-13T16:08:24.818Z,95837.13
2023-01-13T16:10:53.469Z,95826.09
2023-01-13T16:13:22.317Z,95848.06
2023-01-13T16:19:17.794Z,95846.53
2023-01-13T16:21:48.181Z,95849.91
2023-01-13T16:24:17.023Z,95838.78
2023-01-13T16:26:45.616Z,95837.31
2023-01-13T16:29:14.371Z,95843.94
2023-01-13T16:31:42.911Z,95839.38
2023-01-13T16:34:11.742Z,95839.59
2023-01-13T16:36:40.857Z,95838.09
2023-01-13T16:39:22.749Z,95842.47
2023-01-13T16:41:51.898Z,95846.13
2023-01-13T16:44:21.196Z,95855.13
2023-01-13T16:46:50.346Z,95862.06
2023-01-13T16:49:19.025Z,95854.41
2023-01-13T16:51:47.579Z,95857.28
2023-01-13T16:54:18.549Z,95868.63
2023-01-13T16:56:47.333Z,95864.94
2023-01-13T16:59:16.208Z,95854.13
2023-01-13T17:01:46.284Z,95871.84
2023-01-13T17:04:17.240Z,95885.69
2023-01-13T17:06:52.318Z,95893.94
2023-01-13T17:09:28.500Z,95907.72
2023-01-13T17:11:57.453Z,95934.94
2023-01-13T17:14:26.299Z,95960.31
2023-01-13T17:16:57.327Z,95982.03
2023-01-13T17:19:26.320Z,95977.44
2023-01-13T17:21:54.946Z,95967.44
2023-01-13T17:24:26.050Z,95971.41
2023-01-13T17:26:54.717Z,95978.47
2023-01-13T17:29:25.994Z,95978.97
2023-01-13T17:31:55.008Z,95978.78
2023-01-13T17:34:23.924Z,95892.97
2023-01-13T17:36:52.633Z,95979.25
2023-01-13T17:39:27.154Z,95977.66
2023-01-13T17:41:59.396Z,95984.56
2023-01-13T17:44:28.031Z,95967.66
2023-01-13T17:46:57.093Z,95970.31
2023-01-13T17:49:26.006Z,95976.41
2023-01-13T17:51:55.242Z,95972.34
2023-01-13T17:54:24.481Z,95984.59
2023-01-13T17:56:53.266Z,95981.09
2023-01-13T17:59:24.430Z,95985.28
2023-01-13T18:01:53.573Z,95989.84
2023-01-13T18:04:23.351Z,95988.56
2023-01-13T18:06:52.361Z,95976.41
2023-01-13T18:09:21.904Z,95984.25
2023-01-13T18:11:50.886Z,95993.00
2023-01-13T18:14:22.575Z,96000.13
2023-01-13T18:17:18.533Z,96021.84
2023-01-13T18:20:04.488Z,96034.63
2023-01-13T18:22:50.261Z,96065.47
2023-01-13T18:26:00.920Z,96097.22
2023-01-13T18:28:29.858Z,96091.50
2023-01-13T18:30:59.196Z,96094.63
2023-01-13T18:33:29.269Z,96086.50
2023-01-13T18:35:58.079Z,96093.75
2023-01-13T18:38:26.566Z,96114.13
2023-01-13T18:40:58.334Z,96116.75
2023-01-13T18:43:25.935Z,96118.00
2023-01-13T18:45:55.455Z,96130.63
2023-01-13T18:48:34.379Z,96128.50
2023-01-13T18:51:02.948Z,96141.13
2023-01-13T18:53:32.679Z,96140.41
2023-01-13T18:56:01.267Z,96127.03
2023-01-13T18:58:33.493Z,96131.97
2023-01-13T19:01:02.973Z,96144.75
2023-01-13T19:03:31.653Z,96144.88
2023-01-13T19:06:07.606Z,96152.50
2023-01-13T19:09:08.470Z,96149.97
2023-01-13T19:11:37.450Z,96167.59
2023-01-13T19:14:06.574Z,96172.91
2023-01-13T19:16:35.409Z,96176.53
2023-01-13T19:19:06.587Z,96182.34
2023-01-13T19:21:36.824Z,96190.63
2023-01-13T19:24:05.686Z,96189.25
2023-01-13T19:26:34.474Z,96183.63
2023-01-13T19:29:05.234Z,96179.91
2023-01-13T19:31:34.036Z,96185.00
2023-01-13T19:34:03.242Z,96194.75
2023-01-13T19:36:31.610Z,96196.38
2023-01-13T19:39:01.889Z,96195.47
2023-01-13T19:41:48.114Z,96197.84
2023-01-13T19:44:34.243Z,96197.84
2023-01-13T19:47:03.957Z,96195.28
2023-01-13T19:49:32.871Z,96197.84
2023-01-13T19:52:02.245Z,96199.66
2023-01-13T19:54:32.255Z,96197.09
2023-01-13T19:57:00.816Z,96192.00
2023-01-13T19:59:30.657Z,96184.28
2023-01-13T20:02:00.802Z,96187.13
2023-01-13T20:04:37.885Z,96188.56
2023-01-13T20:07:08.092Z,96198.75
2023-01-13T20:09:38.200Z,96208.94
2023-01-13T20:12:08.970Z,96207.91
2023-01-13T20:14:37.891Z,96204.47
2023-01-13T20:17:07.046Z,96218.72
2023-01-13T20:19:36.173Z,96211.19
2023-01-13T20:22:05.081Z,96211.38
2023-01-13T20:24:34.519Z,96209.72
2023-01-13T20:27:08.924Z,96215.00
2023-01-13T20:29:37.686Z,96208.38
2023-01-13T20:32:07.083Z,96219.00
2023-01-13T20:34:35.836Z,96212.53
2023-01-13T20:37:04.512Z,96222.63
2023-01-13T20:39:33.849Z,96220.25
2023-01-13T20:42:20.041Z,96210.00
2023-01-13T20:44:50.169Z,96213.66
2023-01-13T20:47:44.065Z,96201.63
2023-01-13T20:50:13.745Z,96206.72
2023-01-13T20:52:42.486Z,96204.91
2023-01-13T20:55:12.488Z,96202.28
2023-01-13T20:57:41.506Z,96210.09
2023-01-13T21:00:18.894Z,96192.66
2023-01-13T21:02:49.772Z,96195.09
2023-01-13T21:05:18.609Z,96200.19
2023-01-13T21:07:47.202Z,96194.28
2023-01-13T21:10:16.058Z,96200.84
2023-01-13T21:13:01.982Z,96198.00
2023-01-13T21:15:34.489Z,96209.75
2023-01-13T21:18:20.496Z,96212.91
2023-01-13T21:20:50.960Z,96200.38
2023-01-13T21:23:20.267Z,96209.66
2023-01-13T21:25:49.006Z,96219.72
2023-01-13T21:28:19.172Z,96215.09
2023-01-13T21:31:03.682Z,96212.28
2023-01-13T21:33:32.538Z,96223.00
2023-01-13T21:36:06.453Z,96223.34
2023-01-13T21:38:35.473Z,96214.91
2023-01-13T21:41:16.076Z,96216.25
2023-01-13T21:44:02.646Z,96227.53
2023-01-13T21:46:50.574Z,96223.78
2023-01-13T21:49:19.620Z,96224.88
2023-01-13T21:51:48.664Z,96227.13
2023-01-13T21:54:17.398Z,96227.28
2023-01-13T21:56:46.046Z,96222.47
2023-01-13T21:59:19.758Z,96230.38
2023-01-13T22:02:32.142Z,96234.63
2023-01-13T22:05:04.072Z,96236.88
2023-01-13T22:07:33.843Z,96247.09
2023-01-13T22:10:03.104Z,96244.19
2023-01-13T22:12:31.834Z,96237.56
2023-01-13T22:15:00.679Z,96246.16
2023-01-13T22:17:31.885Z,96236.47
2023-01-13T22:20:01.679Z,96231.47
2023-01-13T22:22:36.785Z,96242.84
2023-01-13T22:25:07.223Z,96238.13
2023-01-13T22:27:40.454Z,96247.75
2023-01-13T22:30:10.777Z,96240.41
2023-01-13T22:32:49.037Z,96243.44
2023-01-13T22:35:17.970Z,96236.81
2023-01-13T22:37:47.739Z,96241.25
2023-01-13T22:40:17.000Z,96230.44
2023-01-13T22:42:48.534Z,96221.00
2023-01-13T22:45:17.720Z,96223.88
2023-01-13T22:47:46.314Z,96229.03
2023-01-13T22:50:16.965Z,96227.25
2023-01-13T22:52:48.492Z,96220.69
2023-01-13T22:55:17.356Z,96219.13
2023-01-13T22:57:48.531Z,96227.63
2023-01-13T23:00:19.337Z,96236.38
2023-01-13T23:02:48.760Z,96232.03
2023-01-13T23:05:17.732Z,96230.03
2023-01-13T23:07:47.891Z,96227.91
2023-01-13T23:10:16.899Z,96235.66
2023-01-13T23:13:10.590Z,96228.97
2023-01-13T23:15:41.676Z,96220.78
2023-01-13T23:18:12.814Z,96227.25
2023-01-13T23:20:42.807Z,96222.50
2023-01-13T23:23:13.337Z,96211.06
2023-01-13T23:25:42.417Z,96209.81
2023-01-13T23:28:11.055Z,96212.84
2023-01-13T23:30:42.710Z,96190.16
2023-01-13T23:33:11.510Z,96201.94
2023-01-13T23:35:40.319Z,96208.00
2023-01-13T23:38:09.146Z,96206.53
2023-01-13T23:40:42.368Z,96212.75
2023-01-13T23:43:11.141Z,96198.91
2023-01-13T23:45:41.249Z,96203.44
2023-01-13T23:48:09.792Z,96209.63
2023-01-13T23:50:38.782Z,96205.88
2023-01-13T23:53:07.603Z,96213.03
2023-01-13T23:55:36.149Z,96212.03
2023-01-13T23:58:06.423Z,96212.19
